Latest Weather Observations for Adelaide Airport

IDS60901

Issued at 4:01 pm CDT Friday 24 November 2017 (issued every 10 minutes, with the page automatically refreshed every 10 minutes)

About weather observations | Map of Adelaide area stations | Latest observations for Adelaide area | Other Formats
Station Details ID: 023034 Name: ADELAIDE AIRPORT Lat: -34.95 Lon: 138.52 Height: 2.0 m
Data from the previous 72 hours. | See also: Recent months at Adelaide Airport
Date/Time
CDT
Temp
°C
App
Temp
°C
Dew
Point
°C
Rel
Hum
%
Delta-T
°C
Wind Press
QNH
hPa
Press
MSL
hPa
Rain since
9am
mm
Dir  Spd
km/h
Gust
km/h
Spd
kts
Gust
kts
24/03:30pm 26.4 25.6 15.0 49 6.9 S 13 19 7 10 1010.2 1010.2 0.0
24/03:00pm 26.2 24.5 13.5 45 7.5 SSW 15 19 8 10 1010.5 1010.5 0.0
24/02:30pm 24.8 23.7 15.4 56 5.7 S 15 19 8 10 1010.9 1010.9 0.0
24/02:00pm 21.7 21.0 17.3 76 2.7 SW 17 19 9 10 1011.2 1011.2 0.0
24/01:30pm 22.0 22.0 17.3 74 2.9 SW 13 15 7 8 1011.7 1011.7 0.0
24/01:00pm 22.2 21.1 16.4 69 3.5 SW 17 20 9 11 1011.9 1011.9 0.0
24/12:30pm 24.8 24.0 16.1 58 5.3 SW 15 19 8 10 1012.0 1012.0 0.0
24/12:00pm 22.4 21.7 15.4 64 4.2 WSW 13 17 7 9 1012.5 1012.5 0.0
24/11:30am 22.6 21.3 14.8 61 4.6 WSW 15 19 8 10 1012.5 1012.5 0.0
24/11:00am 24.7 23.3 15.6 57 5.5 W 17 22 9 12 1012.5 1012.5 0.0
24/10:30am 23.4 21.6 14.4 57 5.3 W 17 24 9 13 1012.5 1012.5 0.0
24/10:00am 23.5 22.7 15.1 59 5.0 WSW 13 19 7 10 1012.4 1012.4 0.0
24/09:30am 24.7 22.8 14.2 52 6.2 ENE 17 20 9 11 1012.4 1012.4 0.0
24/09:00am 24.1 23.3 14.1 53 5.9 NNE 11 19 6 10 1012.2 1012.2 0.6
24/08:30am 23.7 23.0 13.2 51 6.1 N 9 11 5 6 1012.0 1012.0 0.6
24/08:00am 24.2 23.4 13.0 49 6.5 ESE 9 13 5 7 1011.6 1011.6 0.6
24/07:30am 22.3 21.6 13.3 56 5.2 SSE 9 13 5 7 1011.7 1011.7 0.6
24/07:00am 20.3 19.3 13.5 65 3.9 ESE 11 15 6 8 1011.6 1011.6 0.6
24/06:30am 19.5 19.2 13.2 67 3.6 SE 7 7 4 4 1011.3 1011.3 0.6
24/06:00am 17.8 19.0 14.9 83 1.7 SSE 2 6 1 3 1011.0 1011.0 0.6
24/05:30am 17.4 17.3 15.0 86 1.4 ESE 9 9 5 5 1010.9 1010.9 0.6
24/05:00am 18.3 18.4 15.6 84 1.6 SE 9 9 5 5 1010.6 1010.6 0.6
24/04:30am 18.2 18.4 15.7 85 1.5 S 9 11 5 6 1010.5 1010.5 0.6
24/04:00am 19.0 19.6 15.8 82 1.9 WNW 7 9 4 5 1010.6 1010.6 0.6
24/03:30am 19.3 19.9 15.4 78 2.3 WNW 6 7 3 4 1010.5 1010.5 0.6
24/03:00am 19.1 19.6 15.0 77 2.4 W 6 13 3 7 1010.5 1010.5 0.6
24/02:30am 19.9 21.0 14.6 71 3.1 NNE 2 7 1 4 1010.6 1010.6 0.6
24/02:00am 19.7 19.4 14.4 71 3.1 ENE 9 11 5 6 1011.0 1011.0 0.6
24/01:30am 18.9 18.7 14.8 77 2.4 ESE 9 9 5 5 1011.1 1011.1 0.6
24/01:00am 18.4 18.2 14.6 78 2.2 E 9 11 5 6 1011.4 1011.4 0.6
24/12:30am 18.0 18.0 14.2 78 2.2 SE 7 9 4 5 1011.5 1011.5 0.6
24/12:00am 19.0 18.6 14.1 73 2.8 E 9 9 5 5 1011.8 1011.8 0.6
 
Date/Time
CDT
Temp
°C
App
Temp
°C
Dew
Point
°C
Rel
Hum
%
Delta-T
°C
Wind Press
QNH
hPa
Press
MSL
hPa
Rain since
9am
mm
Dir  Spd
km/h
Gust
km/h
Spd
kts
Gust
kts
23/11:30pm 19.3 19.2 13.9 71 3.1 SE 7 9 4 5 1011.6 1011.6 0.6
23/11:00pm 19.1 19.0 13.9 72 3.0 SSE 7 13 4 7 1011.4 1011.4 0.6
23/10:30pm 19.4 19.7 14.4 73 2.9 SE 6 7 3 4 1011.4 1011.4 0.6
23/10:00pm 19.5 19.2 14.5 73 2.9 SE 9 13 5 7 1011.1 1011.1 0.6
23/09:30pm 19.3 19.6 15.0 76 2.5 E 7 9 4 5 1010.8 1010.8 0.6
23/09:00pm 19.8 20.4 15.4 76 2.6 S 6 7 3 4 1010.5 1010.5 0.6
23/08:30pm 20.2 19.8 15.3 73 2.9 SSW 11 13 6 7 1010.1 1010.1 0.6
23/08:00pm 20.2 18.4 15.5 74 2.8 SW 19 26 10 14 1009.9 1009.9 0.6
23/07:30pm 20.7 18.8 15.7 73 3.0 SW 20 26 11 14 1010.1 1010.1 0.6
23/07:00pm 20.7 18.5 16.0 74 2.8 SW 22 28 12 15 1009.8 1009.8 0.6
23/06:30pm 20.5 19.5 16.5 78 2.4 SW 17 20 9 11 1009.2 1009.2 0.6
23/06:00pm 20.4 18.8 16.6 79 2.3 SW 20 28 11 15 1009.1 1009.1 0.6
23/05:30pm 24.7 22.4 14.2 52 6.2 NNW 19 26 10 14 1009.2 1009.2 0.6
23/05:00pm 25.3 20.6 10.6 39 8.2 N 26 33 14 18 1008.9 1008.9 0.6
23/04:30pm 25.8 21.2 10.9 39 8.4 N 26 39 14 21 1008.7 1008.7 0.6
23/04:00pm 27.2 22.7 12.6 40 8.5 NE 28 33 15 18 1008.5 1008.5 0.6
23/03:30pm 25.6 23.2 13.7 47 7.0 NE 19 28 10 15 1009.0 1009.0 0.6
23/03:00pm 24.8 22.2 13.3 48 6.7 ENE 19 26 10 14 1009.4 1009.4 0.6
23/02:30pm 23.5 21.5 14.0 55 5.6 E 17 24 9 13 1010.2 1010.2 0.6
23/02:00pm 21.3 21.5 14.7 66 3.9 ENE 7 13 4 7 1010.9 1010.9 0.6
23/01:30pm 21.2 19.7 15.3 69 3.5 NW 17 30 9 16 1012.1 1012.1 0.4
23/01:00pm 21.4 20.5 14.8 66 3.9 W 13 19 7 10 1011.9 1011.9 0.4
23/12:30pm 20.2 20.1 16.9 81 2.0 WNW 13 19 7 10 1011.9 1011.9 0.4
23/12:16pm 19.8 19.8 17.3 85 1.5 WNW 13 19 7 10 1012.2 1012.2 0.4
23/12:00pm 20.3 20.1 17.7 85 1.6 W 15 24 8 13 1011.7 1011.7 0.4
23/11:30am 20.2 19.4 18.1 88 1.3 NW 19 22 10 12 1012.3 1012.3 0.2
23/11:00am 21.0 21.2 17.6 81 2.1 NW 13 19 7 10 1011.9 1011.9 0.2
23/10:30am 22.3 21.4 15.8 66 3.9 NNW 15 20 8 11 1011.5 1011.5 0.2
23/10:00am 21.9 20.6 17.2 74 2.9 NNW 20 30 11 16 1011.0 1011.0 0.2
23/09:30am 22.6 21.1 16.3 67 3.8 NW 19 32 10 17 1010.6 1010.6 0.0
23/09:00am 23.9 23.7 14.6 56 5.5 N 9 13 5 7 1009.3 1009.3 2.0
23/08:30am 24.6 25.7 15.5 57 5.5 NE 4 9 2 5 1009.1 1009.1 2.0
23/08:00am 22.5 22.1 16.1 67 3.9 ENE 13 17 7 9 1008.9 1008.9 2.0
23/07:30am 21.0 21.7 17.9 82 1.9 NE 11 19 6 10 1008.9 1008.9 2.0
23/07:00am 19.9 21.1 17.3 85 1.6 SSE 7 9 4 5 1008.5 1008.5 2.0
23/06:30am 19.3 20.2 16.6 84 1.6 SW 7 9 4 5 1008.0 1008.0 2.0
23/06:00am 19.0 20.1 16.5 85 1.5 SSE 6 9 3 5 1007.5 1007.5 2.0
23/05:30am 19.5 21.9 16.9 85 1.6 CALM 0 0 0 0 1007.5 1007.5 2.0
23/05:00am 19.7 20.6 16.6 82 1.9 ESE 7 9 4 5 1007.5 1007.5 2.0
23/04:30am 20.1 19.8 16.5 80 2.2 NE 13 19 7 10 1008.2 1008.2 1.8
23/04:00am 20.8 19.6 16.0 74 2.9 NE 17 20 9 11 1008.6 1008.6 1.6
23/03:30am 20.9 20.2 16.4 75 2.7 NNE 15 19 8 10 1008.6 1008.6 1.6
23/03:00am 20.5 21.1 16.7 79 2.3 NNW 9 15 5 8 1008.5 1008.5 1.6
23/02:30am 20.9 19.5 16.6 76 2.6 NE 19 26 10 14 1008.6 1008.6 1.6
23/02:00am 20.4 21.0 17.6 84 1.7 ENE 11 15 6 8 1008.3 1008.3 1.6
23/01:30am 21.5 19.9 15.1 67 3.8 E 17 26 9 14 1008.7 1008.7 1.0
23/01:00am 21.4 21.3 15.9 71 3.3 NE 11 15 6 8 1008.8 1008.8 1.0
23/12:30am 23.4 21.1 14.0 55 5.5 NE 19 26 10 14 1008.2 1008.2 0.2
23/12:00am 21.9 20.4 15.4 66 3.9 ESE 17 20 9 11 1007.9 1007.9 0.2
 
Date/Time
CDT
Temp
°C
App
Temp
°C
Dew
Point
°C
Rel
Hum
%
Delta-T
°C
Wind Press
QNH
hPa
Press
MSL
hPa
Rain since
9am
mm
Dir  Spd
km/h
Gust
km/h
Spd
kts
Gust
kts
22/11:30pm 21.7 20.1 14.9 65 4.0 ESE 17 19 9 10 1008.3 1008.3 0.2
22/11:00pm 21.1 18.5 15.0 68 3.6 E 22 30 12 16 1008.8 1008.8 0.2
22/10:30pm 21.1 18.0 15.6 71 3.3 ENE 26 30 14 16 1009.9 1009.9 0.2
22/10:00pm 22.6 21.8 16.0 66 4.0 NE 15 20 8 11 1010.9 1010.9 0.0
22/09:30pm 23.8 21.7 13.7 53 5.9 N 17 22 9 12 1011.1 1011.1 0.0
22/09:00pm 23.5 23.3 14.7 57 5.2 NNE 9 13 5 7 1010.8 1010.8 0.0
22/08:30pm 22.8 22.8 15.3 62 4.5 SW 9 15 5 8 1010.8 1010.8 0.0
22/08:00pm 22.6 23.0 15.2 63 4.4 W 7 9 4 5 1010.5 1010.5 0.0
22/07:30pm 22.6 20.6 15.0 62 4.5 WNW 19 26 10 14 1010.3 1010.3 0.0
22/07:00pm 23.6 21.1 14.1 55 5.6 SW 20 26 11 14 1009.3 1009.3 0.0
22/06:30pm 24.8 22.6 13.3 48 6.7 SW 17 20 9 11 1008.9 1008.9 0.0
22/06:00pm 26.3 22.8 12.3 41 8.1 SW 22 28 12 15 1008.8 1008.8 0.0
22/05:30pm 27.5 24.0 11.0 35 9.4 SSW 20 28 11 15 1008.4 1008.4 0.0
22/05:00pm 27.1 22.8 10.9 36 9.2 SSW 24 32 13 17 1008.5 1008.5 0.0
22/04:30pm 25.6 21.6 11.8 42 7.9 SSW 24 33 13 18 1008.8 1008.8 0.0
22/04:00pm 26.6 22.4 11.1 38 8.8 SSW 24 33 13 18 1009.1 1009.1 0.0
22/03:30pm 25.1 20.5 11.1 41 7.9 SSW 26 35 14 19 1009.6 1009.6 0.0
22/03:00pm 25.5 21.4 10.0 37 8.6 SW 22 33 12 18 1010.0 1010.0 0.0
22/02:30pm 23.9 20.8 14.4 55 5.6 SW 24 30 13 16 1010.1 1010.1 0.0
22/02:00pm 27.0 23.1 9.4 33 9.7 SW 20 28 11 15 1010.1 1010.1 0.0
22/01:30pm 29.5 25.7 7.6 25 11.9 SSW 17 26 9 14 1009.6 1009.6 0.0
22/01:00pm 28.4 24.0 11.6 35 9.7 WNW 26 35 14 19 1009.6 1009.6 0.0
22/12:30pm 32.1 26.6 6.0 19 14.0 WNW 24 35 13 19 1009.5 1009.5 0.0
22/12:00pm 31.3 26.8 8.4 24 12.7 WNW 22 30 12 16 1009.9 1009.9 0.0
22/11:30am 28.3 24.0 9.4 30 10.5 WNW 22 30 12 16 1010.3 1010.3 0.0
22/11:00am 28.8 24.5 7.8 26 11.4 WNW 20 30 11 16 1010.7 1010.7 0.0
22/10:30am 27.2 22.0 10.3 34 9.5 WNW 28 35 15 19 1010.8 1010.8 0.0
22/10:05am 28.4 22.3 9.8 31 10.4 NNW 32 41 17 22 1010.8 1010.8 0.0
22/10:00am 33.5 26.9 2.2 14 15.9 N 26 41 14 22 1010.6 1010.6 0.0
22/09:30am 32.2 24.4 1.8 14 15.2 NNE 32 41 17 22 1010.6 1010.6 0.0
22/09:00am 31.9 23.6 2.3 15 14.9 NNE 35 48 19 26 1010.6 1010.6 0.0
22/08:30am 30.4 23.0 1.6 16 14.2 NNE 30 39 16 21 1010.6 1010.6 0.0
22/08:00am 30.3 24.2 2.9 17 13.8 NNE 24 32 13 17 1010.5 1010.5 0.0
22/07:30am 28.9 23.1 2.1 18 13.2 NNE 22 28 12 15 1010.4 1010.4 0.0
22/07:00am 27.5 22.2 3.1 20 12.1 NE 20 28 11 15 1010.2 1010.2 0.0
22/06:30am 26.6 21.2 2.7 21 11.7 NE 20 30 11 16 1009.9 1009.9 0.0
22/06:00am 26.7 21.3 2.2 20 11.9 NE 20 28 11 15 1009.7 1009.7 0.0
22/05:30am 26.7 21.0 2.6 21 11.8 NE 22 30 12 16 1009.5 1009.5 0.0
22/05:00am 27.0 21.6 2.5 20 12.0 NE 20 32 11 17 1009.4 1009.4 0.0
22/04:30am 27.6 21.4 1.9 19 12.5 NE 24 33 13 18 1009.4 1009.4 0.0
22/04:00am 27.4 21.6 2.2 19 12.3 NE 22 30 12 16 1009.2 1009.2 0.0
22/03:30am 27.6 22.1 1.9 19 12.5 NE 20 28 11 15 1009.3 1009.3 0.0
22/03:00am 25.7 20.8 4.1 24 10.8 NE 19 26 10 14 1009.4 1009.4 0.0
22/02:30am 26.4 21.4 3.7 23 11.3 NE 19 26 10 14 1009.6 1009.6 0.0
22/02:00am 27.2 22.1 2.9 21 12.0 NE 19 26 10 14 1009.8 1009.8 0.0
22/01:30am 27.2 21.5 2.9 21 12.0 NE 22 28 12 15 1009.9 1009.9 0.0
22/01:00am 26.9 21.7 2.6 20 11.9 NE 19 26 10 14 1010.2 1010.2 0.0
22/12:30am 26.9 22.1 2.6 20 11.9 NE 17 22 9 12 1010.4 1010.4 0.0
22/12:00am 27.3 22.4 2.0 19 12.3 NE 17 20 9 11 1010.5 1010.5 0.0
 
Date/Time
CDT
Temp
°C
App
Temp
°C
Dew
Point
°C
Rel
Hum
%
Delta-T
°C
Wind Press
QNH
hPa
Press
MSL
hPa
Rain since
9am
mm
Dir  Spd
km/h
Gust
km/h
Spd
kts
Gust
kts
21/11:30pm 25.4 20.8 3.8 24 10.7 ENE 17 19 9 10 1010.6 1010.6 0.0
21/11:00pm 25.1 20.5 3.9 25 10.5 ENE 17 19 9 10 1010.9 1010.9 0.0
21/10:30pm 25.4 21.3 4.1 25 10.6 ENE 15 19 8 10 1011.0 1011.0 0.0
21/10:00pm 26.9 23.1 3.7 22 11.6 ENE 13 17 7 9 1011.2 1011.2 0.0
21/09:30pm 27.0 23.4 5.2 24 11.2 E 13 17 7 9 1011.2 1011.2 0.0
21/09:00pm 27.3 23.4 5.4 24 11.3 E 15 17 8 9 1010.8 1010.8 0.0
21/08:30pm 28.8 25.0 3.7 20 12.7 ENE 13 17 7 9 1010.6 1010.6 0.0
21/08:00pm 31.8 26.7 0.8 14 15.2 NE 17 24 9 13 1010.4 1010.4 0.0
21/07:30pm 33.3 26.9 -1.5 10 16.6 NE 22 28 12 15 1010.2 1010.2 0.0
21/07:00pm 32.6 27.4 5.7 18 14.4 NE 22 30 12 16 1010.1 1010.1 0.0
21/06:30pm 30.5 26.6 8.7 25 12.1 NE 19 33 10 18 1010.0 1010.0 0.0
21/06:00pm 31.6 27.9 8.1 23 13.0 WSW 17 28 9 15 1010.1 1010.1 0.0
21/05:30pm 32.0 29.4 7.6 22 13.4 NNE 11 19 6 10 1010.3 1010.3 0.0
21/05:00pm 33.2 28.7 6.2 18 14.6 SW 19 26 10 14 1010.5 1010.5 0.0
21/04:30pm 31.7 27.6 7.7 22 13.2 SW 19 26 10 14 1010.6 1010.6 0.0

Latest Capital City Observations: Canberra | Sydney | Melbourne | Brisbane | Adelaide | Perth | Hobart | Darwin

Other Formats:

Comma delimited format used in spreadsheet applications
http://www.bom.gov.au/fwo/IDS60901/IDS60901.94672.axf

JavaScript Object Notation format (JSON) in row-major order
http://www.bom.gov.au/fwo/IDS60901/IDS60901.94672.json